Time;durP1;ratioP1;P1;durP2;ratioP2;P2;SDS_P1;SDS_P2;PMS_P1;PMS_P2;Temp;Humidity;BMP_temperature;BMP_pressure;BME280_temperature;BME280_humidity;BME280_pressure;Samples;Min_cycle;Max_cycle;Signal;HPM_P1;HPM_P2
2022/05/06 00:02:15;;;;;;;7.92;4.60;;;;;;;21.23;40.14;101528.13;1719929;83;21538;-84
2022/05/06 00:04:43;;;;;;;9.43;4.58;;;;;;;21.22;40.14;101538.37;1719922;82;21213;-83
2022/05/06 00:07:12;;;;;;;6.75;4.10;;;;;;;21.23;40.16;101532.28;1719847;83;21104;-84
2022/05/06 00:09:48;;;;;;;6.28;4.75;;;;;;;21.23;40.16;101540.58;1719880;83;21056;-84
2022/05/06 00:12:17;;;;;;;6.75;4.20;;;;;;;21.22;40.15;101537.55;1720135;83;21036;-84
2022/05/06 00:14:42;;;;;;;7.30;4.53;;;;;;;21.22;40.13;101543.91;1719911;83;21033;-84
2022/05/06 00:17:08;;;;;;;7.10;5.17;;;;;;;21.23;40.16;101546.12;1719629;82;21572;-84
2022/05/06 00:19:44;;;;;;;6.35;4.92;;;;;;;21.22;40.13;101538.93;1690538;83;21065;-84
2022/05/06 00:22:11;;;;;;;6.20;4.58;;;;;;;21.22;40.13;101547.23;1686554;83;21096;-82
2022/05/06 00:24:37;;;;;;;7.25;4.55;;;;;;;21.22;40.12;101550.00;1686759;85;21527;-84
2022/05/06 00:27:04;;;;;;;7.58;4.03;;;;;;;21.21;40.13;101543.67;1686780;85;21139;-84
2022/05/06 00:29:30;;;;;;;7.87;4.92;;;;;;;21.22;40.12;101548.62;1686485;85;21972;-84
2022/05/06 00:31:56;;;;;;;7.70;5.08;;;;;;;21.21;40.15;101540.08;1686710;83;21113;-84
2022/05/06 00:34:23;;;;;;;6.80;5.20;;;;;;;21.20;40.13;101548.94;1686972;85;21156;-84
2022/05/06 00:36:50;;;;;;;6.35;4.50;;;;;;;21.20;40.13;101550.33;1692765;83;21081;-84
2022/05/06 00:39:16;;;;;;;8.00;4.90;;;;;;;21.20;40.14;101544.80;1704065;84;21086;-84
2022/05/06 00:41:42;;;;;;;7.78;5.87;;;;;;;21.20;40.16;101549.50;1694072;83;21757;-84
2022/05/06 00:44:09;;;;;;;18.67;5.83;;;;;;;21.20;40.12;101552.27;1687695;83;20922;-84
2022/05/06 00:46:38;;;;;;;9.63;5.67;;;;;;;21.20;40.12;101555.03;1688076;83;21041;-83
2022/05/06 00:49:08;;;;;;;6.90;5.25;;;;;;;21.19;40.13;101547.85;1687715;83;21116;-84
2022/05/06 00:51:34;;;;;;;7.05;5.28;;;;;;;21.19;40.13;101553.39;1687528;83;21111;-84
2022/05/06 00:54:00;;;;;;;7.85;5.28;;;;;;;21.19;40.14;101547.30;1687876;83;21719;-84
2022/05/06 00:56:27;;;;;;;7.40;5.37;;;;;;;21.19;40.14;101550.62;1687749;83;21120;-84
2022/05/06 00:58:53;;;;;;;6.28;5.35;;;;;;;21.19;40.10;101546.47;1675882;84;21060;-84
2022/05/06 01:01:20;;;;;;;10.88;5.50;;;;;;;21.19;40.12;101551.45;1687812;83;21060;-84
2022/05/06 01:03:46;;;;;;;8.00;5.30;;;;;;;21.19;40.09;101544.53;1687895;83;21115;-84
2022/05/06 01:06:15;;;;;;;8.33;5.58;;;;;;;21.17;40.08;101542.64;1687568;83;21189;-84
2022/05/06 01:08:43;;;;;;;7.15;5.17;;;;;;;21.18;40.07;101545.64;1676188;84;21081;-84
2022/05/06 01:11:16;;;;;;;6.10;4.72;;;;;;;21.18;40.08;101542.05;1687875;83;21096;-84
2022/05/06 01:13:45;;;;;;;6.85;5.33;;;;;;;21.17;40.08;101542.64;1687579;83;21088;-84
2022/05/06 01:16:12;;;;;;;6.40;4.92;;;;;;;21.18;40.07;101546.20;1688010;85;21116;-84
2022/05/06 01:18:39;;;;;;;8.53;5.83;;;;;;;21.17;40.08;101537.11;1708785;82;21129;-84
2022/05/06 01:21:06;;;;;;;7.80;5.05;;;;;;;21.17;40.08;101540.43;1710822;83;21566;-84
2022/05/06 01:23:33;;;;;;;6.75;5.17;;;;;;;21.16;40.07;101534.08;1711182;83;21040;-84
2022/05/06 01:25:59;;;;;;;8.08;5.47;;;;;;;21.16;40.07;101537.40;1711162;83;21096;-84
2022/05/06 01:28:26;;;;;;;8.60;5.62;;;;;;;21.16;40.04;101533.25;1710993;82;21076;-84
2022/05/06 01:31:00;;;;;;;7.45;5.33;;;;;;;21.16;40.04;101535.45;1711259;83;21083;-84
2022/05/06 01:33:21;;;;;;;7.20;5.37;;;;;;;21.15;40.03;101532.42;1710055;82;20993;-84
2022/05/06 01:36:05;;;;;;;8.95;5.62;;;;;;;21.15;40.00;101536.57;1711110;82;21610;-84
2022/05/06 01:38:43;;;;;;;8.65;5.50;;;;;;;21.15;39.98;101528.27;1710969;82;21061;-84
2022/05/06 01:41:16;;;;;;;5.97;4.50;;;;;;;21.15;39.97;101534.36;1711041;82;21077;-84
2022/05/06 01:43:46;;;;;;;6.22;4.70;;;;;;;21.14;39.96;101529.39;1708089;82;21912;-84
2022/05/06 01:46:15;;;;;;;7.83;4.65;;;;;;;21.13;39.96;101530.51;1711006;82;21037;-83
2022/05/06 01:48:45;;;;;;;7.65;5.05;;;;;;;21.14;39.95;101536.87;1685303;83;20957;-84
2022/05/06 01:51:14;;;;;;;7.95;5.37;;;;;;;21.15;39.94;101537.13;1684806;83;21069;-84
2022/05/06 01:53:41;;;;;;;6.33;4.40;;;;;;;21.14;39.94;101535.48;1711099;82;21017;-84
2022/05/06 01:56:08;;;;;;;7.85;5.28;;;;;;;21.15;39.94;101541.28;1684210;82;21329;-84
2022/05/06 01:58:35;;;;;;;7.67;5.37;;;;;;;21.14;39.92;101536.87;1711199;83;21127;-84
2022/05/06 02:01:01;;;;;;;6.65;5.10;;;;;;;21.13;39.91;101536.04;1710942;83;21061;-84
2022/05/06 02:06:13;;;;;;;7.50;4.95;;;;;;;21.13;39.88;101537.42;1711131;83;21085;-83
2022/05/06 02:08:39;;;;;;;6.47;5.03;;;;;;;21.13;39.83;101543.55;1711299;82;21064;-83
2022/05/06 02:11:06;;;;;;;6.47;5.10;;;;;;;21.13;39.83;101543.55;1711336;83;21068;-83
2022/05/06 02:13:34;;;;;;;6.97;5.55;;;;;;;21.12;39.82;101542.72;1711093;82;21052;-83
2022/05/06 02:16:02;;;;;;;6.45;5.50;;;;;;;21.12;39.83;101535.80;1711277;82;21131;-83
2022/05/06 02:18:28;;;;;;;6.92;5.50;;;;;;;21.12;39.79;101537.72;1694736;83;21622;-83
2022/05/06 02:20:58;;;;;;;7.53;5.42;;;;;;;21.12;39.79;101537.19;1687875;83;21096;-83
2022/05/06 02:23:25;;;;;;;6.60;4.80;;;;;;;21.12;39.78;101544.11;1688153;83;21048;-85
2022/05/06 02:25:51;;;;;;;5.87;4.97;;;;;;;21.12;39.78;101542.72;1688217;83;21040;-83
2022/05/06 02:28:18;;;;;;;7.25;5.70;;;;;;;21.11;39.76;101542.42;1688034;83;21049;-84
2022/05/06 02:33:30;;;;;;;6.05;4.95;;;;;;;21.12;39.72;101552.41;1688577;83;21209;-83
2022/05/06 02:35:57;;;;;;;7.50;4.47;;;;;;;21.11;39.70;101549.90;1688240;85;21009;-83
2022/05/06 02:38:23;;;;;;;8.20;4.90;;;;;;;21.11;39.70;101550.73;1688245;83;21088;-82
2022/05/06 02:40:49;;;;;;;6.35;4.95;;;;;;;21.11;39.70;101555.44;1687831;85;21016;-83
2022/05/06 02:43:17;;;;;;;5.65;4.95;;;;;;;21.11;39.71;101548.52;1703147;83;21046;-82
2022/05/06 02:45:44;;;;;;;7.28;5.05;;;;;;;21.11;39.69;101545.75;1704074;84;21239;-83
2022/05/06 02:48:10;;;;;;;7.15;5.75;;;;;;;21.11;39.65;101547.13;1704360;83;21050;-84
2022/05/06 02:50:37;;;;;;;5.92;5.10;;;;;;;21.10;39.63;101547.69;1704495;84;21059;-83
2022/05/06 02:53:03;;;;;;;6.20;5.30;;;;;;;21.10;39.59;101549.08;1704226;83;21039;-83
2022/05/06 02:55:30;;;;;;;8.45;5.22;;;;;;;21.10;39.59;101553.78;1704080;84;21102;-82
2022/05/06 02:57:56;;;;;;;7.42;4.95;;;;;;;21.11;39.57;101556.27;1704483;84;21305;-83
2022/05/06 03:00:23;;;;;;;7.78;5.00;;;;;;;21.10;39.56;101553.23;1704257;83;21071;-83
2022/05/06 03:02:50;;;;;;;6.80;5.40;;;;;;;21.11;39.52;101555.44;1704056;83;21098;-83
2022/05/06 03:05:16;;;;;;;8.03;4.78;;;;;;;21.10;39.49;101553.23;1704308;83;21129;-83
2022/05/06 03:07:43;;;;;;;6.00;4.65;;;;;;;21.10;39.50;101549.08;1704368;84;21018;-83
2022/05/06 03:10:10;;;;;;;6.58;4.87;;;;;;;21.10;39.49;101555.17;1704241;84;21113;-84
2022/05/06 03:12:37;;;;;;;7.50;4.83;;;;;;;21.10;39.46;101555.17;1704396;83;21098;-83
2022/05/06 03:15:04;;;;;;;7.00;4.62;;;;;;;21.10;39.46;101558.77;1704364;84;21126;-84
2022/05/06 03:17:36;;;;;;;5.55;4.65;;;;;;;21.10;39.45;101561.53;1703898;83;21106;-83
2022/05/06 03:20:08;;;;;;;6.05;4.58;;;;;;;21.09;39.43;101567.38;1682230;84;21568;-83
2022/05/06 03:22:41;;;;;;;6.33;4.75;;;;;;;21.09;39.41;101564.03;1704092;83;21278;-84
2022/05/06 03:25:09;;;;;;;7.10;4.75;;;;;;;21.09;39.38;101563.23;1704111;84;21656;-83
2022/05/06 03:30:20;;;;;;;7.40;4.87;;;;;;;21.09;39.35;101564.03;1674518;84;21077;-83
2022/05/06 03:32:47;;;;;;;8.65;4.97;;;;;;;21.08;39.36;101567.94;1686057;85;21560;-83
2022/05/06 03:35:13;;;;;;;6.03;4.33;;;;;;;21.08;39.36;101558.81;1686664;85;21166;-82
2022/05/06 03:37:40;;;;;;;7.30;4.95;;;;;;;21.08;39.31;101565.17;1686299;85;21077;-83
2022/05/06 03:40:07;;;;;;;7.87;5.10;;;;;;;21.08;39.30;101562.97;1686347;85;21152;-84
2022/05/06 03:42:33;;;;;;;7.33;4.80;;;;;;;21.08;39.28;101567.94;1686646;83;21030;-83
2022/05/06 03:44:59;;;;;;;6.17;4.55;;;;;;;21.08;39.29;101563.80;1686581;85;21029;-83
2022/05/06 03:47:26;;;;;;;7.70;4.75;;;;;;;21.08;39.27;101557.44;1687216;83;21570;-81
2022/05/06 03:51:20;;;;;;;7.00;5.20;;;;;;;21.08;39.27;101562.97;1704352;84;21039;-83
2022/05/06 03:52:22;;;;;;;5.62;4.65;;;;;;;21.08;39.26;101569.33;1699826;84;21075;-84
2022/05/06 03:54:50;;;;;;;7.08;4.97;;;;;;;21.08;39.23;101567.94;1704552;84;21054;-83
2022/05/06 03:57:17;;;;;;;6.67;4.90;;;;;;;21.08;39.24;101568.50;1703789;84;21585;-83
2022/05/06 03:59:44;;;;;;;7.65;5.15;;;;;;;21.07;39.30;101570.44;1681061;84;21122;-82
2022/05/06 04:02:11;;;;;;;5.70;4.78;;;;;;;21.09;39.26;101579.83;1703790;84;21560;-84
2022/05/06 04:04:37;;;;;;;7.00;4.92;;;;;;;21.07;39.29;101581.51;1704249;83;21434;-84
2022/05/06 04:07:03;;;;;;;5.62;4.45;;;;;;;21.08;39.30;101587.87;1704545;84;21054;-84
2022/05/06 04:09:30;;;;;;;6.83;4.83;;;;;;;21.08;39.28;101587.31;1704680;83;21067;-85
2022/05/06 04:11:58;;;;;;;7.00;4.78;;;;;;;21.08;39.30;101590.08;1704691;84;21018;-85
2022/05/06 04:14:24;;;;;;;7.60;4.12;;;;;;;21.07;39.30;101589.81;1704037;84;21516;-85
2022/05/06 04:16:50;;;;;;;7.72;4.62;;;;;;;21.07;39.29;101596.73;1704602;83;21110;-85
2022/05/06 04:19:16;;;;;;;8.03;4.78;;;;;;;21.08;39.24;101599.77;1709914;83;21066;-85
2022/05/06 04:24:27;;;;;;;8.90;4.83;;;;;;;21.07;39.14;101604.20;1680263;84;21540;-84
2022/05/06 04:26:53;;;;;;;7.47;5.00;;;;;;;21.05;39.07;101602.31;1677548;84;21051;-84
2022/05/06 04:29:20;;;;;;;7.53;5.17;;;;;;;21.04;39.04;101602.05;1689529;83;21347;-84
2022/05/06 04:31:46;;;;;;;7.55;5.12;;;;;;;21.03;38.98;101603.16;1679171;82;21051;-84
2022/05/06 04:34:12;;;;;;;8.30;5.70;;;;;;;21.02;38.93;101607.87;1679432;85;21119;-84
2022/05/06 04:36:39;;;;;;;7.28;5.75;;;;;;;21.02;38.84;101612.58;1703342;83;21175;-84
2022/05/06 04:39:06;;;;;;;7.92;5.55;;;;;;;21.01;38.81;101620.61;1702656;83;21040;-85
2022/05/06 04:41:32;;;;;;;15.43;6.97;;;;;;;20.98;38.68;101615.95;1689456;83;21070;-81
2022/05/06 04:43:58;;;;;;;14.73;6.62;;;;;;;20.96;38.54;101617.39;1684159;83;21294;-80
2022/05/06 04:46:25;;;;;;;12.88;7.00;;;;;;;20.92;38.48;101614.94;1684104;83;21078;-82
2022/05/06 04:48:51;;;;;;;18.02;7.60;;;;;;;20.91;38.45;101615.52;1678941;83;22062;-80
2022/05/06 04:51:17;;;;;;;19.48;8.45;;;;;;;20.90;38.42;101619.41;1662287;85;21070;-84
2022/05/06 04:53:44;;;;;;;17.80;8.23;;;;;;;20.89;38.32;101623.28;1671455;83;21122;-83
2022/05/06 04:56:10;;;;;;;18.40;8.23;;;;;;;20.89;38.26;101625.22;1651876;82;21513;-86
2022/05/06 04:58:37;;;;;;;14.60;8.40;;;;;;;20.89;38.26;101625.22;1693296;82;21036;-82
2022/05/06 05:01:04;;;;;;;20.23;7.95;;;;;;;20.90;38.22;101630.47;1678937;83;21828;-85
2022/05/06 05:03:30;;;;;;;21.50;8.28;;;;;;;20.91;38.22;101629.91;1641769;84;21131;-78
2022/05/06 05:05:58;;;;;;;12.30;7.75;;;;;;;20.93;38.27;101629.03;1631881;85;21102;-79
2022/05/06 05:08:24;;;;;;;14.35;8.10;;;;;;;20.96;38.19;101636.75;1622708;85;21103;-78
2022/05/06 05:10:50;;;;;;;18.85;7.92;;;;;;;21.00;38.24;101636.97;1652659;85;21171;-78
2022/05/06 05:13:17;;;;;;;14.43;7.97;;;;;;;21.02;38.23;101640.24;1641389;85;21415;-80
2022/05/06 05:15:43;;;;;;;26.68;9.00;;;;;;;21.03;38.24;101633.04;1653655;84;21526;-79
2022/05/06 05:18:09;;;;;;;24.87;9.00;;;;;;;21.07;38.21;101632.70;1647347;84;21156;-87
2022/05/06 05:20:36;;;;;;;17.62;7.80;;;;;;;21.10;38.17;101633.47;1662064;84;22105;-82
2022/05/06 05:23:02;;;;;;;21.50;7.90;;;;;;;21.13;38.19;101630.71;1669168;84;21085;-84
2022/05/06 05:25:29;;;;;;;18.40;9.00;;;;;;;21.17;38.19;101634.52;1664763;84;21543;-84
2022/05/06 05:27:55;;;;;;;26.52;11.22;;;;;;;21.19;38.23;101634.47;1657736;84;21185;-81
2022/05/06 05:30:21;;;;;;;17.62;9.55;;;;;;;21.23;38.25;101641.59;1661698;84;21060;-79
2022/05/06 05:32:47;;;;;;;21.93;9.50;;;;;;;21.27;38.31;101642.08;1658785;84;21048;-80
2022/05/06 05:35:14;;;;;;;18.07;9.28;;;;;;;21.30;38.38;101647.00;1693481;84;21064;-78
2022/05/06 05:37:40;;;;;;;19.82;11.20;;;;;;;21.34;38.43;101654.16;1667006;84;21545;-81
2022/05/06 05:40:10;;;;;;;20.23;11.25;;;;;;;21.37;38.49;101650.22;1629890;85;21118;-81
2022/05/06 05:42:37;;;;;;;22.25;9.20;;;;;;;21.41;38.53;101654.03;1666989;85;21601;-82
2022/05/06 05:50:36;;;;;;;37.00;17.30;;;;;;;21.52;38.63;101658.81;1569927;89;21157;-77
2022/05/06 05:53:05;;;;;;;28.47;13.65;;;;;;;21.54;38.69;101660.73;1628594;86;21069;-77
2022/05/06 05:55:30;;;;;;;29.50;12.33;;;;;;;21.57;38.78;101665.66;1660491;86;21133;-75
2022/05/06 05:57:57;;;;;;;17.92;10.23;;;;;;;21.61;38.86;101657.55;1670511;84;21051;-75
2022/05/06 06:00:23;;;;;;;21.00;7.35;;;;;;;21.64;38.87;101650.84;1647032;84;21118;-78
2022/05/06 06:02:49;;;;;;;23.83;7.47;;;;;;;21.67;38.80;101649.43;1659707;84;21536;-76
2022/05/06 06:05:22;;;;;;;25.02;7.55;;;;;;;21.69;38.73;101652.70;1664188;84;21607;-77
2022/05/06 06:07:48;;;;;;;20.12;6.67;;;;;;;21.72;38.77;101660.42;1668363;84;21085;-77
2022/05/06 06:10:14;;;;;;;20.17;7.00;;;;;;;21.73;38.69;101657.33;1666846;84;21353;-77
2022/05/06 06:12:40;;;;;;;18.40;7.20;;;;;;;21.75;38.68;101662.58;1657033;84;21508;-76
2022/05/06 06:15:09;;;;;;;23.60;6.78;;;;;;;21.76;38.67;101665.05;1657292;84;21926;-77
2022/05/06 06:17:36;;;;;;;25.62;8.00;;;;;;;21.78;38.77;101666.11;1653154;84;21503;-76
2022/05/06 06:20:02;;;;;;;15.18;7.20;;;;;;;21.81;38.76;101672.45;1662169;85;21090;-76
2022/05/06 06:22:28;;;;;;;19.82;7.05;;;;;;;21.82;38.80;101672.12;1661931;84;21137;-76
2022/05/06 06:24:55;;;;;;;19.40;6.53;;;;;;;21.84;38.85;101674.04;1637735;86;21159;-76
2022/05/06 06:27:21;;;;;;;16.52;7.00;;;;;;;21.86;38.87;101668.17;1643870;85;21783;-76
2022/05/06 06:29:49;;;;;;;20.77;7.55;;;;;;;21.87;38.91;101671.20;1654853;85;21073;-75
2022/05/06 06:32:16;;;;;;;16.70;7.95;;;;;;;21.89;38.96;101674.51;1654885;85;21770;-77
2022/05/06 06:34:42;;;;;;;19.37;7.70;;;;;;;21.90;38.97;101678.11;1646814;86;21141;-76
2022/05/06 06:37:09;;;;;;;17.57;9.75;;;;;;;21.92;38.97;101675.84;1637119;86;21103;-76
2022/05/06 06:39:36;;;;;;;20.57;8.83;;;;;;;21.92;38.93;101668.91;1648934;84;21243;-76
2022/05/06 06:42:03;;;;;;;20.05;8.65;;;;;;;21.93;38.90;101666.44;1658922;84;21063;-76
2022/05/06 06:44:29;;;;;;;20.08;8.80;;;;;;;21.95;38.86;101660.84;1639190;85;21110;-76
2022/05/06 06:46:58;;;;;;;19.92;8.95;;;;;;;21.97;38.72;101660.53;1639681;85;21587;-75
2022/05/06 06:49:24;;;;;;;19.05;7.55;;;;;;;21.98;38.61;101659.42;1660850;84;22247;-82
2022/05/06 06:51:50;;;;;;;21.45;7.22;;;;;;;21.99;38.45;101662.42;1657030;84;22112;-78
2022/05/06 06:54:16;;;;;;;18.87;7.03;;;;;;;21.99;38.43;101661.86;1655374;84;21063;-77
2022/05/06 06:56:43;;;;;;;23.27;7.83;;;;;;;22.01;38.35;101658.23;1662337;84;21188;-76
2022/05/06 06:59:09;;;;;;;26.05;6.53;;;;;;;22.02;38.38;101657.11;1663063;84;21102;-74
2022/05/06 07:01:35;;;;;;;18.10;6.45;;;;;;;22.04;38.36;101654.84;1661513;85;21156;-76
2022/05/06 07:04:02;;;;;;;24.25;6.62;;;;;;;22.07;38.36;101654.78;1659237;85;21054;-77
2022/05/06 07:11:57;;;;;;;18.80;7.12;;;;;;;22.09;38.48;101652.54;1649992;84;21089;-79
2022/05/06 07:14:25;;;;;;;16.05;7.33;;;;;;;22.09;38.51;101653.92;1648074;84;21069;-81
2022/05/06 07:16:52;;;;;;;23.70;7.67;;;;;;;22.09;38.54;101658.08;1667658;84;21343;-79
2022/05/06 07:19:20;;;;;;;21.70;7.53;;;;;;;22.10;38.61;101656.40;1662423;84;21203;-77
2022/05/06 07:21:46;;;;;;;14.03;6.62;;;;;;;22.09;38.60;101660.85;1661996;85;21006;-82
2022/05/06 07:24:12;;;;;;;13.65;5.50;;;;;;;22.08;38.52;101659.20;1668079;85;21045;-79
2022/05/06 07:26:40;;;;;;;13.08;5.50;;;;;;;22.06;38.42;101665.07;1641586;85;21064;-81
2022/05/06 07:29:07;;;;;;;15.32;4.97;;;;;;;22.05;38.33;101669.52;1670805;84;21166;-81
2022/05/06 07:31:33;;;;;;;10.08;4.80;;;;;;;22.03;38.25;101663.45;1654443;84;21104;-77
2022/05/06 07:33:59;;;;;;;13.13;4.67;;;;;;;22.02;38.17;101672.92;1629054;86;21041;-82
2022/05/06 07:36:26;;;;;;;9.20;4.25;;;;;;;22.00;38.11;101666.28;1654533;85;21096;-81
2022/05/06 07:38:52;;;;;;;7.47;4.35;;;;;;;22.00;38.08;101664.90;1649846;84;21108;-81
2022/05/06 07:41:19;;;;;;;10.10;5.00;;;;;;;21.99;38.12;101661.86;1636449;85;21906;-79
2022/05/06 07:43:45;;;;;;;15.50;5.33;;;;;;;21.99;38.17;101656.87;1660179;84;21076;-80
2022/05/06 07:46:11;;;;;;;16.82;5.65;;;;;;;21.98;38.26;101661.59;1644602;85;21106;-77
2022/05/06 07:48:38;;;;;;;14.68;5.37;;;;;;;21.98;38.40;101667.14;1659655;84;21064;-80
2022/05/06 07:51:05;;;;;;;17.25;6.08;;;;;;;21.96;38.47;101661.09;1655318;84;21119;-79
2022/05/06 07:53:31;;;;;;;21.95;5.40;;;;;;;21.94;38.52;101660.57;1662243;84;21169;-82
2022/05/06 07:55:58;;;;;;;18.37;5.12;;;;;;;21.92;38.59;101657.30;1659812;84;21111;-80
2022/05/06 07:58:27;;;;;;;13.88;5.00;;;;;;;21.90;38.68;101652.58;1659347;84;21148;-83
2022/05/06 08:00:53;;;;;;;15.28;4.95;;;;;;;21.91;38.75;101668.64;1659723;84;21417;-76
2022/05/06 08:06:04;;;;;;;23.12;5.30;;;;;;;21.85;38.87;101665.96;1648363;85;21703;-77
2022/05/06 08:08:31;;;;;;;18.87;5.40;;;;;;;21.85;38.99;101659.03;1651648;85;21993;-84
2022/05/06 08:10:57;;;;;;;19.82;5.65;;;;;;;21.85;39.14;101664.58;1649039;85;21699;-83
2022/05/06 08:13:24;;;;;;;20.25;5.62;;;;;;;21.84;39.20;101664.34;1652884;85;21289;-81
2022/05/06 08:15:52;;;;;;;21.48;5.17;;;;;;;21.84;39.38;101667.11;1648080;85;21721;-80
2022/05/06 08:18:19;;;;;;;17.73;5.40;;;;;;;21.84;39.53;101671.27;1668498;84;21183;-78
2022/05/06 08:20:46;;;;;;;20.10;5.47;;;;;;;21.83;39.55;101671.00;1659434;85;21356;-80
2022/05/06 08:23:12;;;;;;;13.53;5.28;;;;;;;21.84;39.59;101680.97;1655563;85;21678;-78
2022/05/06 08:25:38;;;;;;;19.40;5.42;;;;;;;21.84;39.60;101680.14;1662499;85;21596;-80
2022/05/06 08:28:07;;;;;;;13.78;5.12;;;;;;;21.84;39.65;101687.89;1658395;84;21594;-81
2022/05/06 08:30:39;;;;;;;19.82;5.28;;;;;;;21.83;39.66;101687.63;1659508;84;21101;-81
2022/05/06 08:33:06;;;;;;;10.53;4.87;;;;;;;21.83;39.73;101690.39;1636949;85;37935;-80
2022/05/06 08:35:33;;;;;;;14.00;5.30;;;;;;;21.83;39.75;101686.23;1656625;85;21507;-80
2022/05/06 08:37:59;;;;;;;13.80;4.60;;;;;;;21.83;39.83;101682.09;1661900;85;21086;-80
2022/05/06 08:40:29;;;;;;;13.53;5.12;;;;;;;21.83;39.88;101673.77;1656480;85;21116;-79
2022/05/06 08:42:56;;;;;;;14.13;4.50;;;;;;;21.83;39.88;101675.16;1701624;82;21100;-80
2022/05/06 08:50:58;;;;;;;15.83;5.05;;;;;;;21.82;40.03;101675.45;1694838;82;21053;-76
2022/05/06 08:53:27;;;;;;;21.73;4.80;;;;;;;21.81;40.00;101669.09;1703063;82;21052;-78
2022/05/06 08:55:55;;;;;;;15.18;4.37;;;;;;;21.82;40.03;101666.58;1708730;82;21244;-77
2022/05/06 08:58:25;;;;;;;18.27;4.60;;;;;;;21.82;40.03;101658.27;1710407;82;21145;-77
2022/05/06 09:01:06;;;;;;;15.60;4.17;;;;;;;21.82;39.89;101656.88;1697882;83;20981;-77
2022/05/06 09:03:33;;;;;;;22.22;4.40;;;;;;;21.84;39.66;101662.13;1697662;82;21045;-77
2022/05/06 09:05:59;;;;;;;15.80;4.08;;;;;;;21.82;39.62;101658.27;1701237;82;21678;-77
2022/05/06 09:08:38;;;;;;;15.85;3.98;;;;;;;21.81;39.57;101659.98;1672643;84;21557;-76
2022/05/06 09:11:08;;;;;;;18.05;4.55;;;;;;;21.80;39.55;101655.00;1682065;82;21134;-76
2022/05/06 09:13:38;;;;;;;18.00;4.28;;;;;;;21.80;39.66;101656.95;1669569;85;21588;-77
2022/05/06 09:16:40;;;;;;;12.80;3.87;;;;;;;21.80;39.71;101663.87;1635733;85;20994;-79
2022/05/06 09:19:20;;;;;;;24.40;5.10;;;;;;;21.79;39.78;101660.27;1646688;85;21006;-77
2022/05/06 09:22:13;;;;;;;25.05;6.67;;;;;;;21.78;39.90;101665.55;1663194;85;21249;-78
2022/05/06 09:24:38;;;;;;;18.75;7.42;;;;;;;21.78;39.84;101660.57;1687756;82;21001;-79
2022/05/06 09:27:16;;;;;;;15.08;7.95;;;;;;;21.78;39.84;101655.86;1710302;81;20866;-78
2022/05/06 09:29:48;;;;;;;28.25;8.85;;;;;;;21.79;39.89;101652.53;1719481;81;21018;-78
2022/05/06 09:32:25;;;;;;;11.85;7.15;;;;;;;21.78;39.92;101654.47;1703448;82;20927;-78
2022/05/06 09:34:59;;;;;;;19.73;6.83;;;;;;;21.79;39.98;101651.97;1717467;82;21180;-78
2022/05/06 09:37:37;;;;;;;14.78;5.92;;;;;;;21.78;40.02;101651.70;1708177;82;21455;-78
2022/05/06 09:40:10;;;;;;;10.82;5.75;;;;;;;21.80;40.11;101660.54;1702099;82;20926;-78
2022/05/06 09:42:39;;;;;;;14.33;5.25;;;;;;;21.81;40.12;101655.23;1698701;82;21077;-78
2022/05/06 09:45:07;;;;;;;13.95;6.42;;;;;;;21.81;40.12;101648.31;1710079;82;21151;-78
2022/05/06 09:47:33;;;;;;;13.03;6.17;;;;;;;21.81;40.04;101646.92;1711459;82;22102;-77
2022/05/06 09:50:01;;;;;;;22.42;9.75;;;;;;;21.82;40.02;101641.65;1702353;82;21105;-78
2022/05/06 09:52:29;;;;;;;18.20;7.75;;;;;;;21.81;39.97;101639.20;1700379;82;21112;-80
2022/05/06 09:54:56;;;;;;;15.98;6.90;;;;;;;21.79;39.92;101631.19;1703773;82;21167;-79
2022/05/06 09:57:23;;;;;;;17.05;5.53;;;;;;;21.79;39.69;101638.11;1705019;82;21126;-78
2022/05/06 09:59:50;;;;;;;21.45;6.03;;;;;;;21.78;39.58;101634.25;1701654;82;22688;-80
2022/05/06 10:02:17;;;;;;;16.48;4.00;;;;;;;21.80;39.54;101625.91;1708392;82;21598;-80
2022/05/06 10:04:44;;;;;;;16.60;3.80;;;;;;;21.81;39.28;101630.30;1698122;83;21277;-79
2022/05/06 10:07:12;;;;;;;9.10;4.78;;;;;;;21.82;38.94;101620.88;1703976;82;21065;-77
2022/05/06 10:10:01;;;;;;;21.15;4.47;;;;;;;21.83;38.79;101624.47;1702089;82;21131;-78
2022/05/06 10:12:33;;;;;;;10.08;4.05;;;;;;;21.83;38.66;101625.30;1702768;82;21093;-79
2022/05/06 10:15:05;;;;;;;9.18;4.33;;;;;;;21.83;38.58;101628.06;1715491;81;21065;-77
2022/05/06 10:17:59;;;;;;;6.20;2.77;;;;;;;21.83;38.34;101630.84;1717021;82;21054;-80
2022/05/06 10:20:43;;;;;;;13.28;4.00;;;;;;;21.81;37.90;101622.00;1681795;83;21085;-78
2022/05/06 10:23:11;;;;;;;7.05;3.27;;;;;;;21.79;37.62;101620.67;1700257;82;21175;-78
2022/05/06 10:25:48;;;;;;;15.60;3.85;;;;;;;21.78;37.52;101620.41;1700751;83;21591;-76
2022/05/06 10:34:27;;;;;;;5.85;3.10;;;;;;;21.75;37.79;101605.23;1702346;83;21053;-77
2022/05/06 10:36:54;;;;;;;6.30;3.40;;;;;;;21.76;37.76;101614.37;1701639;83;21110;-79
2022/05/06 10:39:36;;;;;;;8.98;3.17;;;;;;;21.75;37.68;101605.23;1689242;83;21619;-78
2022/05/06 10:42:17;;;;;;;9.40;3.52;;;;;;;21.75;37.64;101596.09;1686566;83;21072;-78
2022/05/06 10:44:47;;;;;;;8.75;3.98;;;;;;;21.75;37.90;101592.77;1699213;84;21126;-76
2022/05/06 10:47:19;;;;;;;9.55;3.87;;;;;;;21.76;38.06;101589.44;1686499;83;26716;-77
2022/05/06 10:49:53;;;;;;;6.10;3.20;;;;;;;21.76;37.83;101592.20;1707035;83;21124;-78
2022/05/06 10:52:28;;;;;;;10.90;2.70;;;;;;;21.75;37.71;101594.16;1726743;82;21423;-77
2022/05/06 10:55:00;;;;;;;9.13;2.85;;;;;;;21.75;37.75;101581.69;1701074;83;21078;-77
2022/05/06 10:57:27;;;;;;;14.87;3.05;;;;;;;21.74;37.66;101577.27;1695999;82;21076;-77
2022/05/06 10:59:57;;;;;;;13.22;2.92;;;;;;;21.74;37.55;101580.04;1715236;82;21328;-78
2022/05/06 11:02:27;;;;;;;8.50;2.80;;;;;;;21.74;37.68;101573.67;1716918;82;21662;-77
2022/05/06 11:04:58;;;;;;;8.23;2.60;;;;;;;21.75;37.71;101573.94;1705358;82;21181;-76
2022/05/06 11:07:25;;;;;;;9.38;2.90;;;;;;;21.74;37.68;101574.50;1721963;82;21443;-77
2022/05/06 11:09:51;;;;;;;12.55;2.80;;;;;;;21.75;37.60;101569.22;1695698;83;21113;-78
2022/05/06 11:12:31;;;;;;;16.07;3.12;;;;;;;21.75;37.55;101572.55;1702235;83;21351;-77
2022/05/06 11:14:59;;;;;;;9.43;2.83;;;;;;;21.74;37.55;101568.96;1666110;84;21132;-76
2022/05/06 11:17:26;;;;;;;11.08;3.00;;;;;;;21.75;37.50;101569.22;1696359;83;22728;-77
2022/05/06 11:19:52;;;;;;;9.68;2.67;;;;;;;21.75;37.47;101560.09;1694427;82;21106;-77
2022/05/06 11:22:20;;;;;;;9.58;3.00;;;;;;;21.74;37.43;101560.66;1671169;83;21329;-75
2022/05/06 11:24:47;;;;;;;7.00;1.80;;;;;;;21.73;37.14;101560.39;1668569;84;21023;-79
2022/05/06 11:27:17;;;;;;;7.72;2.50;;;;;;;21.73;36.81;101555.41;1672037;83;21112;-76
2022/05/06 11:29:51;;;;;;;8.50;2.00;;;;;;;21.72;36.54;101550.46;1668984;84;21146;-76
2022/05/06 11:32:17;;;;;;;4.10;2.35;;;;;;;21.72;36.56;101550.46;1661860;85;21562;-78
2022/05/06 11:34:57;;;;;;;9.48;2.37;;;;;;;21.73;36.68;101540.17;1661690;84;21032;-78
2022/05/06 11:37:27;;;;;;;8.88;2.05;;;;;;;21.74;36.74;101550.95;1665946;84;21140;-76
2022/05/06 11:40:18;;;;;;;5.97;2.17;;;;;;;21.75;36.75;101544.86;1676768;83;21581;-79
2022/05/06 11:42:23;;;;;;;5.78;2.30;;;;;;;21.76;36.69;101552.05;1670288;85;21190;-78
2022/05/06 11:47:43;;;;;;;8.03;2.45;;;;;;;21.77;36.17;101536.48;1673134;85;21082;-77
2022/05/06 11:50:09;;;;;;;5.47;2.08;;;;;;;21.77;36.24;101537.05;1668549;83;21076;-77
2022/05/06 11:52:37;;;;;;;9.18;2.12;;;;;;;21.77;35.85;101528.17;1673601;83;21084;-76
2022/05/06 11:55:05;;;;;;;8.80;2.47;;;;;;;21.77;35.54;101531.50;1684385;83;21868;-77
2022/05/06 11:57:34;;;;;;;12.55;2.60;;;;;;;21.76;35.45;101517.42;1650428;85;21140;-79
2022/05/06 12:00:05;;;;;;;14.38;2.47;;;;;;;21.76;35.53;101523.79;1676254;83;21587;-78
2022/05/06 12:02:32;;;;;;;9.25;2.50;;;;;;;21.76;35.60;101516.86;1648476;84;21104;-82
2022/05/06 12:05:10;;;;;;;10.23;2.40;;;;;;;21.76;35.54;101513.27;1645928;85;21597;-78
2022/05/06 12:07:44;;;;;;;6.10;2.45;;;;;;;21.75;35.57;101520.75;1666921;84;22206;-77